logo
Search for airport 
image banner adimage banner adimage banner ad
image banner ad

EGCE42 - Measham Cottage Farm

Located in Measham, United Kingdom

ICAO - , IATA -

Data provided by Airmate  

General information

Coordinates: N52°40'7" W1°31'28"
Elevation is 350 feet MSL.
 
View others Airports in England

Operational data

Special qualification required
Current time UTC:
Current local time:
Weather at : EGNX - East Midlands ( 22 km )
METAR: EGNX 070050Z 29005KT CAVOK 01/M01 Q1038
TAF: TAF AMD EGNX 062207Z 0622/0718 22004KT CAVOK TEMPO 0622/0624 6000 PROB40 0622/0624 4000 BR MIFG TEMPO 0700/0711 3000 BR MIFG PROB40 0700/0711 0300 FZFG VV/// BECMG 0710/0713 CAVOK PROB30 0716/0718 8000
View NOTAMs / SUP AIP / TFR affecting this airport [VIEW]
Communications frequencies: [VIEW]

Runways:

Airport contact information

Address: Measham United Kingdom

Satellite view of EGCE42